Cedar, Minnesota
Current Conditions -  °F | °C
As of 7:45 PM on Saturday 22 Nov 2014 (Local Time) from KANE Reporting Station
Haze Haze  
Wind Chill: 31°   Ceiling: 400
Heat Index: 37°   Visibility: 1.5mi
Dew Point: 37°   Wind: 8mph
Humidity: 100%   Direction: 140°SE
Pressure: 29.58"   Gusts: NA
Location:  45.32°N, 93.29°W
Report Text: KANE 230145Z 14007KT 1 1/2SM BR OVC004 03/03 A2958
Loading
Personal Weather Stations






























Interactive Weather Map New forecast layout! Learn more

10-Day Weather Forecast

Advertisements
Track Severe Weather on mobile